createdAt,value
2022-07-29T00:00:33.096Z,994.80
2022-07-29T00:01:33.084Z,994.76
2022-07-29T00:02:33.185Z,994.71
2022-07-29T00:03:33.133Z,994.73
2022-07-29T00:04:33.117Z,994.66
2022-07-29T00:05:33.035Z,994.63
2022-07-29T00:06:33.018Z,994.60
2022-07-29T00:07:33.008Z,994.53
2022-07-29T00:08:32.992Z,994.48
2022-07-29T00:09:32.982Z,994.50
2022-07-29T00:10:32.968Z,994.48
2022-07-29T00:11:32.956Z,994.50
2022-07-29T00:12:32.943Z,994.45
2022-07-29T00:13:33.097Z,994.47
2022-07-29T00:14:32.916Z,994.51
2022-07-29T00:15:32.907Z,994.50
2022-07-29T00:16:32.932Z,994.45
2022-07-29T00:17:32.880Z,994.49
2022-07-29T00:18:33.090Z,994.55
2022-07-29T00:19:32.854Z,994.64
2022-07-29T00:20:32.838Z,994.66
2022-07-29T00:21:32.826Z,994.73
2022-07-29T00:22:32.813Z,994.74
2022-07-29T00:23:36.683Z,994.70
2022-07-29T00:24:32.785Z,994.63
2022-07-29T00:25:32.775Z,994.60
2022-07-29T00:26:32.777Z,994.54
2022-07-29T00:27:32.749Z,994.52
2022-07-29T00:28:32.735Z,994.46
2022-07-29T00:29:34.438Z,994.37
2022-07-29T00:30:32.807Z,994.34
2022-07-29T00:31:32.781Z,994.32
2022-07-29T00:32:32.681Z,994.27
2022-07-29T00:33:32.672Z,994.30
2022-07-29T00:34:32.655Z,994.37
2022-07-29T00:35:32.646Z,994.35
2022-07-29T00:36:32.631Z,994.43
2022-07-29T00:37:32.622Z,994.47
2022-07-29T00:38:32.605Z,994.46
2022-07-29T00:39:32.593Z,994.55
2022-07-29T00:40:32.579Z,994.48
2022-07-29T00:41:32.567Z,994.56
2022-07-29T00:42:32.552Z,994.60
2022-07-29T00:43:32.542Z,994.64
2022-07-29T00:44:32.528Z,994.67
2022-07-29T00:45:32.518Z,994.79
2022-07-29T00:46:32.556Z,994.84
2022-07-29T00:47:32.503Z,994.85
2022-07-29T00:48:32.474Z,994.93
2022-07-29T00:49:32.461Z,994.91
2022-07-29T00:50:32.448Z,994.88
2022-07-29T00:51:32.437Z,994.77
2022-07-29T00:52:32.421Z,994.76
2022-07-29T00:53:32.409Z,994.74
2022-07-29T00:54:32.394Z,994.70
2022-07-29T00:55:32.382Z,994.66
2022-07-29T00:56:32.368Z,994.60
2022-07-29T00:57:32.356Z,994.56
2022-07-29T00:58:32.342Z,994.45
2022-07-29T00:59:34.999Z,994.40
2022-07-29T01:00:32.412Z,994.37
2022-07-29T01:01:32.528Z,994.33
2022-07-29T01:02:32.381Z,994.32
2022-07-29T01:03:32.278Z,994.25
2022-07-29T01:04:32.266Z,994.20
2022-07-29T01:05:50.995Z,994.22
2022-07-29T01:06:32.243Z,994.19
2022-07-29T01:07:32.229Z,994.19
2022-07-29T01:08:32.217Z,994.15
2022-07-29T01:09:37.279Z,994.11
2022-07-29T01:10:32.190Z,994.11
2022-07-29T01:11:32.178Z,994.11
2022-07-29T01:12:32.163Z,994.11
2022-07-29T01:13:32.155Z,994.11
2022-07-29T01:14:32.137Z,994.16
2022-07-29T01:15:32.127Z,994.10
2022-07-29T01:16:32.223Z,994.16
2022-07-29T01:17:32.100Z,994.10
2022-07-29T01:18:32.089Z,994.09
2022-07-29T01:19:32.076Z,994.11
2022-07-29T01:20:32.119Z,994.09
2022-07-29T01:21:32.050Z,994.09
2022-07-29T01:22:32.036Z,994.11
2022-07-29T01:23:32.026Z,994.12
2022-07-29T01:24:32.009Z,994.13
2022-07-29T01:26:32.501Z,994.10
2022-07-29T01:27:31.972Z,994.20
2022-07-29T01:28:31.959Z,994.13
2022-07-29T01:29:38.666Z,994.10
2022-07-29T01:30:31.933Z,994.14
2022-07-29T01:31:32.001Z,994.13
2022-07-29T01:32:31.949Z,994.08
2022-07-29T01:33:31.898Z,994.09
2022-07-29T01:34:31.888Z,994.10
2022-07-29T01:35:31.868Z,994.09
2022-07-29T01:36:31.855Z,994.07
2022-07-29T01:37:31.844Z,994.10
2022-07-29T01:38:31.829Z,994.12
2022-07-29T01:39:31.817Z,994.12
2022-07-29T01:40:31.804Z,994.10
2022-07-29T01:41:31.792Z,994.07
2022-07-29T01:42:31.779Z,994.06
2022-07-29T01:43:31.766Z,994.03
2022-07-29T01:44:31.751Z,994.00
2022-07-29T01:45:31.741Z,994.00
2022-07-29T01:46:31.794Z,993.98
2022-07-29T01:47:31.712Z,993.95
2022-07-29T01:48:31.697Z,993.98
2022-07-29T01:49:31.685Z,993.95
2022-07-29T01:50:31.676Z,993.85
2022-07-29T01:51:31.658Z,993.92
2022-07-29T01:52:31.645Z,993.88
2022-07-29T01:53:37.753Z,993.86
2022-07-29T01:54:31.625Z,993.88
2022-07-29T01:55:31.604Z,993.87
2022-07-29T01:56:31.594Z,993.85
2022-07-29T01:57:31.578Z,993.82
2022-07-29T01:58:31.567Z,993.87
2022-07-29T01:59:31.555Z,993.84
2022-07-29T02:00:31.546Z,993.78
2022-07-29T02:01:31.535Z,993.80
2022-07-29T02:02:31.513Z,993.81
2022-07-29T02:03:31.500Z,993.83
2022-07-29T02:04:31.489Z,993.80
2022-07-29T02:05:31.581Z,993.77
2022-07-29T02:06:31.463Z,993.73
2022-07-29T02:07:31.448Z,993.68
2022-07-29T02:08:31.440Z,993.64
2022-07-29T02:09:31.425Z,993.69
2022-07-29T02:10:31.411Z,993.65
2022-07-29T02:11:31.397Z,993.69
2022-07-29T02:12:31.386Z,993.66
2022-07-29T02:13:31.375Z,993.68
2022-07-29T02:14:31.362Z,993.70
2022-07-29T02:15:31.345Z,993.75
2022-07-29T02:16:31.405Z,993.73
2022-07-29T02:17:31.320Z,993.76
2022-07-29T02:18:31.309Z,993.77
2022-07-29T02:19:31.293Z,993.74
2022-07-29T02:20:31.283Z,993.77
2022-07-29T02:21:31.271Z,993.74
2022-07-29T02:22:31.258Z,993.81
2022-07-29T02:23:31.242Z,993.74
2022-07-29T02:24:31.230Z,993.80
2022-07-29T02:25:37.286Z,993.80
2022-07-29T02:26:31.205Z,993.81
2022-07-29T02:27:31.190Z,993.75
2022-07-29T02:28:31.181Z,993.73
2022-07-29T02:29:31.172Z,993.65
2022-07-29T02:30:31.155Z,993.66
2022-07-29T02:31:31.253Z,993.64
2022-07-29T02:32:31.131Z,993.67
2022-07-29T02:33:31.115Z,993.65
2022-07-29T02:34:31.104Z,993.67
2022-07-29T02:35:34.900Z,993.70
2022-07-29T02:36:31.077Z,993.69
2022-07-29T02:37:31.063Z,993.67
2022-07-29T02:38:31.054Z,993.69
2022-07-29T02:39:31.045Z,993.69
2022-07-29T02:40:31.027Z,993.69
2022-07-29T02:41:31.014Z,993.62
2022-07-29T02:42:31.005Z,993.67
2022-07-29T02:43:30.988Z,993.66
2022-07-29T02:44:34.521Z,993.66
2022-07-29T02:45:30.962Z,993.59
2022-07-29T02:46:31.027Z,993.66
2022-07-29T02:47:30.936Z,993.61
2022-07-29T02:48:30.926Z,993.63
2022-07-29T02:49:30.912Z,993.66
2022-07-29T02:50:30.903Z,993.66
2022-07-29T02:51:43.332Z,993.69
2022-07-29T02:52:30.875Z,993.64
2022-07-29T02:53:30.861Z,993.66
2022-07-29T02:54:30.850Z,993.66
2022-07-29T02:55:30.837Z,993.66
2022-07-29T02:56:30.826Z,993.72
2022-07-29T02:57:30.809Z,993.67
2022-07-29T02:58:30.799Z,993.62
2022-07-29T02:59:30.784Z,993.60
2022-07-29T03:00:30.778Z,993.64
2022-07-29T03:01:30.808Z,993.73
2022-07-29T03:02:30.751Z,993.75
2022-07-29T03:03:30.739Z,993.76
2022-07-29T03:04:30.776Z,993.80
2022-07-29T03:05:30.723Z,993.79
2022-07-29T03:06:37.935Z,993.79
2022-07-29T03:07:30.683Z,993.73
2022-07-29T03:08:30.672Z,993.78
2022-07-29T03:09:30.657Z,993.77
2022-07-29T03:10:30.645Z,993.82
2022-07-29T03:11:41.457Z,993.77
2022-07-29T03:12:30.621Z,993.85
2022-07-29T03:13:30.606Z,993.85
2022-07-29T03:14:30.593Z,993.88
2022-07-29T03:15:30.580Z,993.84
2022-07-29T03:16:30.657Z,993.84
2022-07-29T03:17:30.557Z,993.79
2022-07-29T03:18:30.544Z,993.83
2022-07-29T03:19:30.529Z,993.82
2022-07-29T03:20:30.517Z,993.83
2022-07-29T03:21:30.504Z,993.79
2022-07-29T03:22:30.492Z,993.82
2022-07-29T03:23:33.266Z,993.79
2022-07-29T03:24:30.469Z,993.78
2022-07-29T03:25:30.452Z,993.78
2022-07-29T03:26:30.441Z,993.81
2022-07-29T03:27:30.426Z,993.83
2022-07-29T03:28:30.415Z,993.82
2022-07-29T03:29:33.956Z,993.83
2022-07-29T03:30:30.389Z,993.81
2022-07-29T03:31:30.454Z,993.82
2022-07-29T03:32:30.364Z,993.90
2022-07-29T03:33:30.351Z,993.79
2022-07-29T03:34:30.340Z,993.81
2022-07-29T03:35:30.322Z,993.78
2022-07-29T03:36:30.311Z,993.79
2022-07-29T03:37:30.295Z,993.71
2022-07-29T03:38:30.287Z,993.74
2022-07-29T03:39:30.270Z,993.73
2022-07-29T03:40:30.261Z,993.74
2022-07-29T03:41:30.244Z,993.74
2022-07-29T03:42:34.146Z,993.76
2022-07-29T03:43:30.218Z,993.76
2022-07-29T03:44:30.226Z,993.75
2022-07-29T03:45:30.192Z,993.78
2022-07-29T03:46:30.236Z,993.79
2022-07-29T03:47:49.782Z,993.77
2022-07-29T03:48:30.155Z,993.85
2022-07-29T03:49:30.140Z,993.85
2022-07-29T03:50:30.156Z,993.79
2022-07-29T03:51:34.010Z,993.77
2022-07-29T03:52:30.104Z,993.72
2022-07-29T03:53:30.089Z,993.73
2022-07-29T03:54:30.077Z,993.72
2022-07-29T03:55:30.063Z,993.72
2022-07-29T03:56:30.051Z,993.75
2022-07-29T03:57:30.041Z,993.72
2022-07-29T03:58:30.025Z,993.75
2022-07-29T03:59:30.015Z,993.76
2022-07-29T04:00:30.000Z,993.71
2022-07-29T04:01:30.068Z,993.75
2022-07-29T04:02:30.856Z,993.77
2022-07-29T04:03:30.016Z,993.73
2022-07-29T04:04:29.946Z,993.76
2022-07-29T04:05:29.932Z,993.71
2022-07-29T04:06:29.921Z,993.75
2022-07-29T04:07:29.907Z,993.80
2022-07-29T04:08:29.895Z,993.77
2022-07-29T04:09:29.880Z,993.77
2022-07-29T04:10:31.873Z,993.79
2022-07-29T04:11:29.859Z,993.85
2022-07-29T04:12:29.843Z,993.89
2022-07-29T04:13:29.830Z,993.85
2022-07-29T04:14:29.817Z,993.87
2022-07-29T04:15:31.222Z,993.87
2022-07-29T04:16:29.898Z,993.93
2022-07-29T04:17:29.777Z,993.98
2022-07-29T04:18:29.763Z,993.95
2022-07-29T04:19:29.765Z,993.96
2022-07-29T04:20:29.739Z,993.91
2022-07-29T04:21:29.726Z,993.88
2022-07-29T04:22:29.712Z,993.91
2022-07-29T04:23:29.699Z,993.93
2022-07-29T04:24:29.698Z,993.94
2022-07-29T04:25:29.675Z,993.92
2022-07-29T04:26:29.662Z,993.98
2022-07-29T04:27:29.646Z,993.95
2022-07-29T04:28:29.638Z,993.97
2022-07-29T04:29:29.623Z,994.00
2022-07-29T04:30:29.611Z,993.88
2022-07-29T04:31:29.681Z,993.87
2022-07-29T04:32:29.584Z,993.92
2022-07-29T04:33:29.571Z,993.90
2022-07-29T04:34:29.557Z,993.93
2022-07-29T04:35:29.541Z,993.87
2022-07-29T04:36:30.184Z,993.90
2022-07-29T04:37:29.517Z,993.91
2022-07-29T04:38:29.505Z,993.93
2022-07-29T04:39:30.493Z,993.91
2022-07-29T04:40:29.480Z,993.86
2022-07-29T04:41:32.691Z,993.84
2022-07-29T04:42:29.803Z,993.82
2022-07-29T04:43:29.439Z,993.82
2022-07-29T04:44:29.429Z,993.90
2022-07-29T04:45:29.413Z,993.92
2022-07-29T04:46:29.487Z,993.94
2022-07-29T04:47:29.388Z,993.96
2022-07-29T04:48:29.377Z,994.01
2022-07-29T04:49:29.386Z,993.94
2022-07-29T04:50:29.351Z,993.94
2022-07-29T04:51:29.336Z,993.94
2022-07-29T04:52:29.326Z,993.96
2022-07-29T04:53:29.310Z,993.96
2022-07-29T04:54:29.300Z,993.94
2022-07-29T04:55:29.284Z,994.03
2022-07-29T04:56:29.274Z,994.00
2022-07-29T04:57:29.258Z,993.95
2022-07-29T04:58:29.246Z,993.99
2022-07-29T04:59:29.232Z,994.01
2022-07-29T05:00:33.494Z,994.00
2022-07-29T05:01:29.260Z,993.97
2022-07-29T05:02:29.283Z,994.02
2022-07-29T05:03:29.180Z,994.06
2022-07-29T05:04:29.168Z,994.05
2022-07-29T05:05:29.154Z,994.02
2022-07-29T05:06:29.143Z,994.01
2022-07-29T05:07:29.127Z,994.04
2022-07-29T05:08:29.118Z,994.02
2022-07-29T05:09:29.102Z,994.03
2022-07-29T05:10:29.098Z,994.05
2022-07-29T05:11:30.572Z,994.08
2022-07-29T05:12:29.064Z,994.06
2022-07-29T05:13:29.050Z,993.96
2022-07-29T05:14:31.038Z,993.99
2022-07-29T05:15:29.072Z,994.00
2022-07-29T05:16:29.013Z,993.97
2022-07-29T05:17:28.999Z,993.98
2022-07-29T05:18:28.987Z,994.03
2022-07-29T05:19:28.971Z,994.05
2022-07-29T05:20:28.961Z,994.10
2022-07-29T05:21:28.949Z,994.05
2022-07-29T05:22:28.937Z,994.09
2022-07-29T05:23:28.919Z,994.05
2022-07-29T05:24:28.909Z,994.06
2022-07-29T05:25:43.433Z,994.06
2022-07-29T05:27:28.868Z,994.03
2022-07-29T05:28:28.858Z,994.00
2022-07-29T05:29:44.566Z,994.12
2022-07-29T05:30:28.830Z,994.05
2022-07-29T05:31:28.857Z,994.06
2022-07-29T05:32:28.806Z,994.04
2022-07-29T05:33:36.229Z,993.99
2022-07-29T05:34:28.778Z,994.04
2022-07-29T05:35:28.763Z,994.05
2022-07-29T05:36:28.753Z,994.01
2022-07-29T05:37:28.739Z,993.98
2022-07-29T05:38:28.727Z,994.06
2022-07-29T05:39:49.004Z,994.01
2022-07-29T05:40:28.700Z,994.01
2022-07-29T05:41:28.687Z,994.04
2022-07-29T05:42:28.675Z,994.04
2022-07-29T05:43:28.663Z,994.05
2022-07-29T05:44:28.650Z,994.01
2022-07-29T05:45:28.640Z,994.05
2022-07-29T05:46:28.658Z,994.08
2022-07-29T05:47:28.610Z,994.03
2022-07-29T05:48:28.597Z,994.09
2022-07-29T05:49:28.593Z,994.11
2022-07-29T05:50:28.573Z,994.14
2022-07-29T05:51:28.558Z,994.07
2022-07-29T05:52:28.547Z,994.10
2022-07-29T05:53:28.534Z,994.03
2022-07-29T05:54:28.524Z,994.02
2022-07-29T05:55:28.507Z,994.06
2022-07-29T05:56:28.499Z,994.09
2022-07-29T05:57:28.483Z,994.04
2022-07-29T05:58:28.469Z,994.01
2022-07-29T05:59:30.662Z,994.05
2022-07-29T06:00:28.491Z,994.06
2022-07-29T06:01:28.498Z,994.00
2022-07-29T06:02:28.420Z,994.06
2022-07-29T06:03:28.407Z,994.08
2022-07-29T06:04:28.486Z,994.06
2022-07-29T06:05:28.383Z,994.09
2022-07-29T06:06:28.369Z,994.10
2022-07-29T06:07:28.357Z,994.11
2022-07-29T06:08:28.344Z,994.11
2022-07-29T06:09:29.280Z,994.16
2022-07-29T06:10:28.319Z,994.11
2022-07-29T06:11:28.306Z,994.12
2022-07-29T06:12:28.292Z,994.15
2022-07-29T06:13:28.283Z,994.15
2022-07-29T06:14:28.266Z,994.17
2022-07-29T06:15:28.253Z,994.12
2022-07-29T06:16:30.249Z,994.17
2022-07-29T06:17:28.228Z,994.14
2022-07-29T06:18:28.214Z,994.19
2022-07-29T06:19:28.203Z,994.19
2022-07-29T06:20:28.190Z,994.17
2022-07-29T06:21:28.190Z,994.27
2022-07-29T06:22:28.164Z,994.18
2022-07-29T06:23:28.153Z,994.20
2022-07-29T06:24:28.146Z,994.22
2022-07-29T06:25:28.128Z,994.24
2022-07-29T06:26:31.458Z,994.25
2022-07-29T06:27:28.101Z,994.25
2022-07-29T06:28:28.087Z,994.26
2022-07-29T06:29:28.076Z,994.35
2022-07-29T06:30:28.160Z,994.31
2022-07-29T06:31:28.053Z,994.33
2022-07-29T06:32:28.052Z,994.33
2022-07-29T06:33:28.025Z,994.35
2022-07-29T06:34:28.010Z,994.36
2022-07-29T06:35:38.552Z,994.38
2022-07-29T06:36:29.984Z,994.34
2022-07-29T06:37:27.988Z,994.36
2022-07-29T06:38:30.794Z,994.36
2022-07-29T06:39:27.947Z,994.42
2022-07-29T06:40:27.935Z,994.41
2022-07-29T06:41:27.922Z,994.34
2022-07-29T06:42:27.910Z,994.36
2022-07-29T06:43:27.899Z,994.37
2022-07-29T06:44:27.884Z,994.28
2022-07-29T06:45:28.516Z,994.32
2022-07-29T06:46:27.890Z,994.35
2022-07-29T06:47:27.844Z,994.25
2022-07-29T06:48:27.835Z,994.42
2022-07-29T06:49:27.880Z,994.38
2022-07-29T06:50:27.809Z,994.35
2022-07-29T06:51:27.798Z,994.32
2022-07-29T06:52:27.780Z,994.34
2022-07-29T06:53:27.772Z,994.35
2022-07-29T06:54:27.755Z,994.32
2022-07-29T06:55:27.745Z,994.29
2022-07-29T06:56:27.730Z,994.32
2022-07-29T06:57:27.720Z,994.29
2022-07-29T06:58:27.706Z,994.33
2022-07-29T06:59:35.109Z,994.33
2022-07-29T07:00:27.681Z,994.36
2022-07-29T07:01:27.732Z,994.31
2022-07-29T07:02:27.700Z,994.29
2022-07-29T07:03:27.644Z,994.33
2022-07-29T07:04:27.632Z,994.35
2022-07-29T07:05:27.619Z,994.28
2022-07-29T07:06:27.607Z,994.34
2022-07-29T07:07:27.596Z,994.36
2022-07-29T07:08:27.580Z,994.34
2022-07-29T07:09:39.811Z,994.33
2022-07-29T07:10:27.557Z,994.38
2022-07-29T07:11:27.547Z,994.38
2022-07-29T07:12:27.533Z,994.36
2022-07-29T07:13:27.523Z,994.34
2022-07-29T07:14:27.512Z,994.37
2022-07-29T07:15:38.534Z,994.39
2022-07-29T07:16:29.572Z,994.41
2022-07-29T07:17:27.480Z,994.41
2022-07-29T07:18:27.460Z,994.38
2022-07-29T07:19:27.457Z,994.46
2022-07-29T07:20:27.436Z,994.45
2022-07-29T07:21:30.116Z,994.35
2022-07-29T07:22:27.411Z,994.37
2022-07-29T07:23:27.401Z,994.36
2022-07-29T07:24:27.387Z,994.44
2022-07-29T07:25:27.376Z,994.45
2022-07-29T07:26:27.365Z,994.45
2022-07-29T07:27:27.351Z,994.34
2022-07-29T07:28:27.339Z,994.38
2022-07-29T07:29:27.325Z,994.35
2022-07-29T07:30:27.312Z,994.40
2022-07-29T07:31:27.374Z,994.36
2022-07-29T07:32:27.377Z,994.37
2022-07-29T07:33:27.278Z,994.41
2022-07-29T07:34:28.231Z,994.40
2022-07-29T07:35:27.254Z,994.36
2022-07-29T07:36:27.240Z,994.41
2022-07-29T07:37:27.230Z,994.41
2022-07-29T07:38:27.221Z,994.27
2022-07-29T07:39:27.205Z,994.33
2022-07-29T07:40:27.192Z,994.26
2022-07-29T07:41:27.182Z,994.27
2022-07-29T07:42:27.169Z,994.27
2022-07-29T07:43:27.158Z,994.31
2022-07-29T07:44:27.142Z,994.32
2022-07-29T07:45:27.183Z,994.27
2022-07-29T07:46:27.207Z,994.40
2022-07-29T07:47:27.848Z,994.24
2022-07-29T07:48:27.100Z,994.25
2022-07-29T07:49:27.126Z,994.20
2022-07-29T07:50:27.075Z,994.30
2022-07-29T07:51:27.062Z,994.29
2022-07-29T07:52:27.045Z,994.29
2022-07-29T07:53:27.040Z,994.42
2022-07-29T07:54:27.021Z,994.27
2022-07-29T07:55:27.014Z,994.28
2022-07-29T07:56:29.658Z,994.33
2022-07-29T07:57:26.987Z,994.31
2022-07-29T07:58:26.975Z,994.28
2022-07-29T07:59:26.963Z,994.28
2022-07-29T08:00:26.948Z,994.28
2022-07-29T08:01:27.061Z,994.25
2022-07-29T08:02:26.987Z,994.29
2022-07-29T08:03:26.918Z,994.31
2022-07-29T08:04:29.005Z,994.29
2022-07-29T08:05:26.891Z,994.25
2022-07-29T08:06:26.877Z,994.25
2022-07-29T08:07:26.867Z,994.34
2022-07-29T08:08:26.852Z,994.26
2022-07-29T08:09:29.608Z,994.32
2022-07-29T08:10:26.829Z,994.39
2022-07-29T08:11:26.818Z,994.35
2022-07-29T08:12:26.804Z,994.34
2022-07-29T08:13:26.794Z,994.39
2022-07-29T08:14:26.783Z,994.34
2022-07-29T08:15:26.770Z,994.36
2022-07-29T08:16:26.788Z,994.38
2022-07-29T08:17:26.745Z,994.41
2022-07-29T08:18:26.737Z,994.39
2022-07-29T08:19:26.719Z,994.42
2022-07-29T08:20:26.704Z,994.40
2022-07-29T08:21:26.694Z,994.41
2022-07-29T08:22:26.682Z,994.38
2022-07-29T08:23:27.790Z,994.30
2022-07-29T08:24:26.653Z,994.43
2022-07-29T08:25:26.644Z,994.37
2022-07-29T08:26:26.629Z,994.34
2022-07-29T08:27:42.845Z,994.34
2022-07-29T08:28:28.602Z,994.41
2022-07-29T08:29:26.591Z,994.46
2022-07-29T08:30:26.578Z,994.40
2022-07-29T08:31:26.671Z,994.40
2022-07-29T08:32:52.206Z,994.49
2022-07-29T08:33:28.543Z,994.47
2022-07-29T08:34:27.765Z,994.46
2022-07-29T08:35:26.531Z,994.48
2022-07-29T08:36:26.503Z,994.42
2022-07-29T08:37:26.493Z,994.41
2022-07-29T08:38:26.477Z,994.41
2022-07-29T08:39:26.466Z,994.41
2022-07-29T08:40:31.884Z,994.43
2022-07-29T08:41:26.441Z,994.42
2022-07-29T08:42:26.428Z,994.47
2022-07-29T08:44:29.626Z,994.45
2022-07-29T08:45:26.425Z,994.37
2022-07-29T08:46:26.379Z,994.44
2022-07-29T08:47:26.370Z,994.46
2022-07-29T08:48:26.356Z,994.42
2022-07-29T08:49:26.458Z,994.55
2022-07-29T08:50:26.333Z,994.51
2022-07-29T08:51:26.320Z,994.42
2022-07-29T08:52:26.306Z,994.43
2022-07-29T08:53:26.296Z,994.40
2022-07-29T08:54:26.282Z,994.40
2022-07-29T08:55:26.272Z,994.44
2022-07-29T08:56:26.258Z,994.43
2022-07-29T08:57:26.247Z,994.45
2022-07-29T08:58:26.233Z,994.47
2022-07-29T08:59:26.229Z,994.42
2022-07-29T09:00:26.209Z,994.53
2022-07-29T09:01:34.986Z,994.48
2022-07-29T09:02:26.190Z,994.44
2022-07-29T09:03:26.258Z,994.42
2022-07-29T09:04:26.162Z,994.45
2022-07-29T09:05:26.152Z,994.44
2022-07-29T09:06:26.138Z,994.44
2022-07-29T09:07:26.133Z,994.37
2022-07-29T09:08:26.117Z,994.44
2022-07-29T09:09:26.111Z,994.38
2022-07-29T09:10:26.092Z,994.31
2022-07-29T09:11:26.086Z,994.40
2022-07-29T09:12:29.077Z,994.29
2022-07-29T09:13:26.061Z,994.37
2022-07-29T09:14:26.047Z,994.29
2022-07-29T09:15:26.037Z,994.42
2022-07-29T09:16:50.801Z,994.39
2022-07-29T09:17:26.047Z,994.21
2022-07-29T09:18:30.791Z,994.30
2022-07-29T09:19:26.003Z,994.20
2022-07-29T09:20:25.977Z,994.27
2022-07-29T09:21:25.969Z,994.24
2022-07-29T09:22:25.955Z,994.22
2022-07-29T09:23:25.948Z,994.23
2022-07-29T09:24:25.933Z,994.21
2022-07-29T09:25:25.923Z,994.14
2022-07-29T09:26:25.911Z,994.10
2022-07-29T09:28:25.895Z,994.12
2022-07-29T09:29:25.878Z,994.12
2022-07-29T09:30:25.862Z,994.14
2022-07-29T09:31:25.974Z,994.14
2022-07-29T09:32:25.839Z,994.12
2022-07-29T09:33:25.827Z,994.17
2022-07-29T09:34:25.817Z,994.16
2022-07-29T09:35:25.804Z,994.14
2022-07-29T09:36:25.791Z,994.09
2022-07-29T09:37:25.781Z,994.08
2022-07-29T09:38:25.768Z,994.06
2022-07-29T09:39:25.760Z,994.14
2022-07-29T09:40:25.748Z,994.07
2022-07-29T09:41:25.739Z,994.06
2022-07-29T09:42:25.726Z,994.04
2022-07-29T09:43:25.713Z,994.03
2022-07-29T09:44:25.702Z,994.05
2022-07-29T09:45:25.692Z,994.17
2022-07-29T09:47:25.670Z,994.11
2022-07-29T09:48:25.655Z,994.08
2022-07-29T09:49:25.772Z,994.01
2022-07-29T09:50:25.639Z,994.22
2022-07-29T09:51:38.082Z,994.02
2022-07-29T09:52:27.606Z,994.05
2022-07-29T09:53:25.599Z,994.00
2022-07-29T09:54:25.604Z,994.09
2022-07-29T09:55:25.574Z,993.97
2022-07-29T09:56:25.571Z,994.00
2022-07-29T09:57:30.186Z,994.00
2022-07-29T09:58:25.537Z,994.06
2022-07-29T09:59:25.527Z,994.01
2022-07-29T10:00:25.515Z,994.03
2022-07-29T10:01:25.579Z,994.02
2022-07-29T10:02:25.491Z,994.13
2022-07-29T10:03:25.581Z,994.16
2022-07-29T10:04:25.468Z,994.16
2022-07-29T10:05:25.459Z,994.15
2022-07-29T10:06:25.446Z,994.16
2022-07-29T10:07:25.435Z,994.13
2022-07-29T10:08:25.424Z,994.17
2022-07-29T10:09:25.413Z,994.02
2022-07-29T10:10:25.409Z,993.95
2022-07-29T10:11:25.391Z,993.93
2022-07-29T10:12:25.377Z,994.01
2022-07-29T10:13:25.368Z,994.00
2022-07-29T10:14:25.355Z,993.99
2022-07-29T10:15:25.346Z,994.04
2022-07-29T10:16:25.443Z,993.96
2022-07-29T10:17:25.323Z,993.96
2022-07-29T10:18:25.310Z,994.10
2022-07-29T10:19:25.303Z,994.00
2022-07-29T10:20:25.287Z,993.88
2022-07-29T10:21:35.653Z,993.99
2022-07-29T10:22:50.680Z,993.94
2022-07-29T10:23:25.253Z,993.94
2022-07-29T10:24:25.243Z,993.94
2022-07-29T10:25:25.230Z,993.96
2022-07-29T10:26:25.222Z,993.97
2022-07-29T10:27:25.207Z,993.97
2022-07-29T10:28:25.198Z,993.97
2022-07-29T10:29:25.185Z,993.91
2022-07-29T10:30:25.175Z,993.82
2022-07-29T10:31:25.203Z,993.84
2022-07-29T10:32:25.155Z,993.83
2022-07-29T10:33:25.142Z,993.98
2022-07-29T10:34:25.133Z,993.81
2022-07-29T10:35:25.124Z,993.96
2022-07-29T10:36:25.112Z,993.98
2022-07-29T10:37:25.097Z,993.92
2022-07-29T10:38:25.087Z,993.89
2022-07-29T10:39:25.076Z,993.81
2022-07-29T10:40:25.069Z,993.80
2022-07-29T10:41:25.055Z,993.77
2022-07-29T10:42:34.100Z,993.81
2022-07-29T10:43:25.120Z,993.76
2022-07-29T10:44:25.024Z,993.77
2022-07-29T10:45:25.010Z,993.81
2022-07-29T10:46:25.548Z,993.88
2022-07-29T10:47:24.987Z,993.72
2022-07-29T10:48:24.982Z,993.79
2022-07-29T10:49:25.520Z,993.91
2022-07-29T10:50:24.956Z,993.85
2022-07-29T10:51:24.942Z,993.69
2022-07-29T10:52:26.615Z,993.72
2022-07-29T10:53:24.926Z,993.77
2022-07-29T10:54:24.911Z,993.78
2022-07-29T10:55:24.896Z,993.80
2022-07-29T10:56:25.380Z,993.73
2022-07-29T10:57:25.610Z,993.79
2022-07-29T10:58:24.870Z,993.73
2022-07-29T10:59:24.851Z,993.76
2022-07-29T11:00:24.842Z,993.66
2022-07-29T11:01:37.266Z,993.64
2022-07-29T11:02:42.682Z,993.60
2022-07-29T11:03:24.818Z,993.62
2022-07-29T11:04:24.795Z,993.59
2022-07-29T11:05:24.783Z,993.81
2022-07-29T11:06:26.765Z,993.76
2022-07-29T11:07:24.761Z,993.64
2022-07-29T11:08:27.665Z,993.63
2022-07-29T11:09:34.949Z,993.60
2022-07-29T11:10:26.957Z,993.71
2022-07-29T11:11:29.551Z,993.69
2022-07-29T11:12:24.696Z,993.55
2022-07-29T11:13:24.683Z,993.58
2022-07-29T11:14:26.641Z,993.56
2022-07-29T11:15:25.173Z,993.55
2022-07-29T11:16:25.255Z,993.46
2022-07-29T11:17:24.636Z,993.57
2022-07-29T11:18:24.625Z,993.54
2022-07-29T11:19:29.835Z,993.48
2022-07-29T11:20:24.603Z,993.54
2022-07-29T11:21:24.589Z,993.61
2022-07-29T11:22:25.563Z,993.64
2022-07-29T11:23:24.565Z,993.62
2022-07-29T11:24:28.887Z,993.64
2022-07-29T11:25:42.788Z,993.58
2022-07-29T11:26:24.535Z,993.61
2022-07-29T11:27:28.567Z,993.56
2022-07-29T11:28:25.400Z,993.56
2022-07-29T11:29:24.496Z,993.56
2022-07-29T11:30:25.141Z,993.52
2022-07-29T11:31:24.473Z,993.59
2022-07-29T11:32:24.463Z,993.55
2022-07-29T11:34:28.134Z,993.50
2022-07-29T11:35:37.112Z,993.52
2022-07-29T11:36:28.195Z,993.47
2022-07-29T11:37:27.956Z,993.53
2022-07-29T11:38:24.399Z,993.45
2022-07-29T11:39:24.382Z,993.43
2022-07-29T11:40:24.375Z,993.54
2022-07-29T11:41:24.359Z,993.42
2022-07-29T11:42:32.630Z,993.44
2022-07-29T11:43:24.337Z,993.44
2022-07-29T11:44:24.328Z,993.44
2022-07-29T11:45:41.189Z,993.40
2022-07-29T11:46:26.303Z,993.44
2022-07-29T11:47:24.325Z,993.45
2022-07-29T11:48:29.388Z,993.44
2022-07-29T11:49:32.490Z,993.48
2022-07-29T11:50:26.921Z,993.40
2022-07-29T11:51:32.869Z,993.39
2022-07-29T11:52:24.237Z,993.38
2022-07-29T11:53:24.226Z,993.56
2022-07-29T11:54:27.534Z,993.45
2022-07-29T11:55:24.200Z,993.47
2022-07-29T11:56:25.696Z,993.40
2022-07-29T11:57:36.497Z,993.32
2022-07-29T11:58:26.512Z,993.37
2022-07-29T12:00:25.149Z,993.30
2022-07-29T12:01:24.134Z,993.31
2022-07-29T12:02:36.373Z,993.24
2022-07-29T12:03:33.475Z,993.28
2022-07-29T12:04:24.103Z,993.31
2022-07-29T12:05:36.831Z,993.25
2022-07-29T12:06:24.086Z,993.22
2022-07-29T12:07:02.430Z,993.37
2022-07-29T12:07:24.071Z,993.18
2022-07-29T12:08:24.067Z,993.08
2022-07-29T12:09:24.047Z,993.20
2022-07-29T12:10:30.054Z,993.18
2022-07-29T12:11:24.024Z,993.23
2022-07-29T12:12:24.463Z,993.22
2022-07-29T12:13:37.573Z,993.13
2022-07-29T12:14:23.993Z,993.15
2022-07-29T12:15:23.979Z,993.19
2022-07-29T12:16:25.595Z,993.13
2022-07-29T12:17:23.958Z,993.18
2022-07-29T12:18:25.946Z,993.19
2022-07-29T12:19:23.934Z,993.31
2022-07-29T12:20:23.924Z,993.24
2022-07-29T12:21:25.763Z,993.18
2022-07-29T12:22:23.901Z,993.17
2022-07-29T12:23:23.890Z,993.17
2022-07-29T12:24:26.819Z,993.16
2022-07-29T12:25:33.084Z,993.15
2022-07-29T12:26:25.973Z,993.17
2022-07-29T12:27:29.301Z,993.11
2022-07-29T12:28:27.402Z,993.08
2022-07-29T12:29:33.921Z,993.06
2022-07-29T12:30:23.812Z,993.15
2022-07-29T12:31:43.379Z,993.05
2022-07-29T12:32:25.892Z,993.10
2022-07-29T12:33:23.776Z,993.14
2022-07-29T12:34:23.766Z,993.09